Time;durP1;ratioP1;P1;durP2;ratioP2;P2;SDS_P1;SDS_P2;PMS_P1;PMS_P2;Temp;Humidity;BMP_temperature;BMP_pressure;BME280_temperature;BME280_humidity;BME280_pressure;Samples;Min_cycle;Max_cycle;Signal;HPM_P1;HPM_P2
2023/06/03 00:00:41;;;;;;;3.58;1.30;;;8.60;74.60;;;;;;5043263;28;20028;-69
2023/06/03 00:03:11;;;;;;;1.75;1.00;;;8.60;74.80;;;;;;5042226;28;20299;-68
2023/06/03 00:05:38;;;;;;;2.22;0.98;;;8.50;75.90;;;;;;5031877;28;20063;-68
2023/06/03 00:08:03;;;;;;;3.67;1.35;;;8.40;76.40;;;;;;5061425;28;20041;-68
2023/06/03 00:10:29;;;;;;;3.08;1.17;;;8.30;76.60;;;;;;5027375;28;20132;-68
2023/06/03 00:12:55;;;;;;;3.95;1.35;;;8.20;77.30;;;;;;5030229;28;20132;-68
2023/06/03 00:15:20;;;;;;;3.88;1.23;;;8.10;77.70;;;;;;5044444;28;20025;-67
2023/06/03 00:17:46;;;;;;;2.58;1.10;;;8.00;78.50;;;;;;5046157;28;20154;-69
2023/06/03 00:20:11;;;;;;;2.40;1.30;;;7.90;78.30;;;;;;5047746;28;20056;-68
2023/06/03 00:22:40;;;;;;;4.03;1.20;;;7.90;78.70;;;;;;5043211;28;20126;-68
2023/06/03 00:25:07;;;;;;;6.00;1.40;;;7.80;79.30;;;;;;5028296;28;20108;-69
2023/06/03 00:27:33;;;;;;;2.70;1.00;;;7.80;79.00;;;;;;5048979;28;20070;-67
2023/06/03 00:29:59;;;;;;;3.50;1.27;;;7.70;79.80;;;;;;5043178;28;20025;-69
2023/06/03 00:32:25;;;;;;;3.65;1.40;;;7.70;79.20;;;;;;5039449;28;20156;-69
2023/06/03 00:34:50;;;;;;;4.72;1.30;;;7.60;79.90;;;;;;5048497;28;20166;-67
2023/06/03 00:37:16;;;;;;;2.90;1.40;;;7.60;79.90;;;;;;5048541;28;20048;-69
2023/06/03 00:39:41;;;;;;;4.45;1.35;;;7.60;79.90;;;;;;5052620;28;20882;-68
2023/06/03 00:42:07;;;;;;;4.95;1.40;;;7.50;80.40;;;;;;5029183;28;20109;-68
2023/06/03 00:44:33;;;;;;;4.78;1.45;;;7.50;80.10;;;;;;5045001;28;20021;-68
2023/06/03 00:46:58;;;;;;;4.57;1.45;;;7.50;80.10;;;;;;5033766;28;20025;-68
2023/06/03 00:49:24;;;;;;;5.47;1.63;;;7.40;80.50;;;;;;5045648;28;20124;-69
2023/06/03 00:51:50;;;;;;;2.22;1.20;;;7.40;80.10;;;;;;5056121;28;20036;-68
2023/06/03 00:54:15;;;;;;;3.17;1.10;;;7.40;80.10;;;;;;5043728;28;20535;-68
2023/06/03 00:56:43;;;;;;;2.10;1.25;;;7.40;80.50;;;;;;5033182;28;20137;-68
2023/06/03 00:59:12;;;;;;;5.43;1.23;;;7.40;80.00;;;;;;5041207;28;20021;-68
2023/06/03 01:01:38;;;;;;;4.88;1.40;;;7.40;80.20;;;;;;5044934;28;20202;-68
2023/06/03 01:04:05;;;;;;;5.50;1.50;;;7.30;80.80;;;;;;5050697;28;20465;-68
2023/06/03 01:06:35;;;;;;;2.00;1.20;;;7.30;81.00;;;;;;5045648;28;20029;-68
2023/06/03 01:09:06;;;;;;;2.42;1.40;;;7.30;80.70;;;;;;5044790;28;20022;-70
2023/06/03 01:11:57;;;;;;;3.85;1.40;;;7.20;81.40;;;;;;5043030;28;20416;-68
2023/06/03 01:14:40;;;;;;;2.55;1.00;;;7.10;81.70;;;;;;5043008;28;20043;-70
2023/06/03 01:17:12;;;;;;;2.75;1.20;;;7.10;82.10;;;;;;5041255;28;20037;-69
2023/06/03 01:19:48;;;;;;;3.03;1.30;;;7.10;82.20;;;;;;5029338;28;20471;-68
2023/06/03 01:22:16;;;;;;;2.90;1.27;;;7.10;82.10;;;;;;5042975;28;20027;-68
2023/06/03 01:24:43;;;;;;;3.08;1.10;;;7.10;82.30;;;;;;5033468;28;20056;-68
2023/06/03 01:27:12;;;;;;;2.78;1.33;;;7.00;81.80;;;;;;5041223;28;20037;-68
2023/06/03 01:29:40;;;;;;;5.55;1.20;;;7.00;81.80;;;;;;5038964;28;20108;-69
2023/06/03 01:32:11;;;;;;;6.45;1.40;;;6.90;82.80;;;;;;5042937;28;20030;-68
2023/06/03 01:34:37;;;;;;;4.25;1.23;;;6.90;82.60;;;;;;5046911;28;20032;-68
2023/06/03 01:37:03;;;;;;;3.20;1.33;;;6.80;82.90;;;;;;5046260;28;20141;-68
2023/06/03 01:39:29;;;;;;;5.05;1.27;;;6.70;82.70;;;;;;5042927;28;20091;-68
2023/06/03 01:41:55;;;;;;;4.97;1.20;;;6.70;82.50;;;;;;5047931;28;20395;-68
2023/06/03 01:44:20;;;;;;;4.38;1.10;;;6.70;82.50;;;;;;5043644;28;20044;-68
2023/06/03 01:46:46;;;;;;;3.50;1.25;;;6.60;82.80;;;;;;5020971;28;20036;-68
2023/06/03 01:49:11;;;;;;;2.45;1.15;;;6.60;83.20;;;;;;5043519;28;20017;-68
2023/06/03 01:51:37;;;;;;;2.45;1.23;;;6.60;82.80;;;;;;5041323;28;20029;-68
2023/06/03 01:54:02;;;;;;;3.40;1.20;;;6.60;82.90;;;;;;5045686;28;20179;-68
2023/06/03 01:56:28;;;;;;;2.08;1.17;;;6.60;82.40;;;;;;5043635;28;20029;-69
2023/06/03 01:58:53;;;;;;;2.92;1.13;;;6.50;82.70;;;;;;5045881;28;20057;-68
2023/06/03 02:01:19;;;;;;;4.32;1.17;;;6.40;83.10;;;;;;5042062;28;20051;-67
2023/06/03 02:03:45;;;;;;;2.70;1.10;;;6.40;83.40;;;;;;5043010;28;20041;-68
2023/06/03 02:06:12;;;;;;;3.47;1.00;;;6.40;83.30;;;;;;5045440;28;20021;-68
2023/06/03 02:08:38;;;;;;;3.65;1.23;;;6.40;83.40;;;;;;5043540;28;20025;-67
2023/06/03 02:11:03;;;;;;;3.30;1.10;;;6.30;83.20;;;;;;5047012;28;20090;-68
2023/06/03 02:13:29;;;;;;;2.70;1.20;;;6.30;83.60;;;;;;5044994;28;20085;-68
2023/06/03 02:15:54;;;;;;;4.10;1.17;;;6.20;83.70;;;;;;5024672;28;20017;-68
2023/06/03 02:18:20;;;;;;;2.05;1.17;;;6.20;84.00;;;;;;5040801;28;20428;-68
2023/06/03 02:20:45;;;;;;;3.50;1.20;;;6.10;84.10;;;;;;5038934;28;20323;-69
2023/06/03 02:23:12;;;;;;;2.65;1.10;;;6.10;84.30;;;;;;5028338;28;20033;-68
2023/06/03 02:25:38;;;;;;;2.83;1.10;;;6.10;85.00;;;;;;5032230;28;20135;-70
2023/06/03 02:28:04;;;;;;;3.97;1.30;;;6.10;85.20;;;;;;5042682;28;20026;-68
2023/06/03 02:30:30;;;;;;;2.22;1.10;;;6.10;85.10;;;;;;5039542;28;20052;-68
2023/06/03 02:32:55;;;;;;;3.28;1.20;;;6.10;85.30;;;;;;5039161;28;20047;-68
2023/06/03 02:35:21;;;;;;;1.65;1.15;;;6.10;84.80;;;;;;5044417;28;20084;-69
2023/06/03 02:37:47;;;;;;;2.83;1.25;;;6.00;85.40;;;;;;5023596;28;20049;-68
2023/06/03 02:40:12;;;;;;;3.90;1.33;;;5.90;85.00;;;;;;5040816;28;20037;-69
2023/06/03 02:42:38;;;;;;;3.15;1.50;;;5.90;85.70;;;;;;5045549;28;20029;-68
2023/06/03 02:45:05;;;;;;;3.40;1.58;;;5.90;85.60;;;;;;5042445;28;20512;-69
2023/06/03 02:47:30;;;;;;;2.97;1.42;;;5.90;86.00;;;;;;5041102;28;20048;-68
2023/06/03 02:49:56;;;;;;;4.60;1.50;;;5.80;86.10;;;;;;5025314;28;20108;-68
2023/06/03 02:52:22;;;;;;;3.65;1.23;;;5.80;85.90;;;;;;5030758;28;20385;-68
2023/06/03 02:54:48;;;;;;;1.75;1.05;;;5.80;86.20;;;;;;5044706;28;20072;-68
2023/06/03 02:57:14;;;;;;;5.43;1.15;;;5.80;86.40;;;;;;5024319;28;20094;-68
2023/06/03 02:59:40;;;;;;;7.13;1.60;;;5.70;86.20;;;;;;5026727;28;20033;-68
2023/06/03 03:02:06;;;;;;;2.75;1.30;;;5.70;86.60;;;;;;5020387;28;20294;-68
2023/06/03 03:04:36;;;;;;;3.55;1.25;;;5.70;86.80;;;;;;5025208;28;20139;-67
2023/06/03 03:07:05;;;;;;;4.03;1.35;;;5.70;86.90;;;;;;5017399;28;20407;-68
2023/06/03 03:09:31;;;;;;;4.70;1.58;;;5.70;86.60;;;;;;5021255;28;20418;-69
2023/06/03 03:11:56;;;;;;;2.50;1.20;;;5.70;86.80;;;;;;5027838;28;20083;-68
2023/06/03 03:14:22;;;;;;;4.13;1.33;;;5.70;86.70;;;;;;5026449;28;20398;-68
2023/06/03 03:16:47;;;;;;;2.35;1.20;;;5.70;86.60;;;;;;5022491;28;20468;-68
2023/06/03 03:19:14;;;;;;;3.95;1.40;;;5.60;86.30;;;;;;5025294;28;20038;-68
2023/06/03 03:21:39;;;;;;;3.25;1.35;;;5.70;86.40;;;;;;5025432;28;20098;-68
2023/06/03 03:24:06;;;;;;;3.75;1.35;;;5.60;86.70;;;;;;5026637;28;20033;-68
2023/06/03 03:26:32;;;;;;;3.25;1.10;;;5.60;86.90;;;;;;5021653;28;20108;-68
2023/06/03 03:28:58;;;;;;;2.83;1.35;;;5.60;87.30;;;;;;5026204;28;20362;-68
2023/06/03 03:31:23;;;;;;;3.55;1.38;;;5.70;87.10;;;;;;5018307;28;20095;-68
2023/06/03 03:33:50;;;;;;;2.75;1.23;;;5.70;87.20;;;;;;5022068;28;20118;-67
2023/06/03 03:36:26;;;;;;;6.25;1.50;;;5.80;87.50;;;;;;5024356;28;20120;-68
2023/06/03 03:39:03;;;;;;;1.90;1.17;;;5.80;87.10;;;;;;5020223;28;20026;-67
2023/06/03 03:41:29;;;;;;;5.03;1.40;;;5.80;86.50;;;;;;5021456;28;20109;-67
2023/06/03 03:43:55;;;;;;;6.28;1.30;;;5.70;86.80;;;;;;5025129;28;20167;-68
2023/06/03 03:46:21;;;;;;;2.63;1.48;;;5.80;87.10;;;;;;5018461;28;20380;-68
2023/06/03 03:48:46;;;;;;;2.38;1.30;;;5.80;87.20;;;;;;5021195;28;20029;-69
2023/06/03 03:51:13;;;;;;;3.50;1.25;;;5.80;87.10;;;;;;5011854;28;20057;-68
2023/06/03 03:53:44;;;;;;;2.75;1.48;;;5.90;87.30;;;;;;5023519;28;20548;-68
2023/06/03 03:56:10;;;;;;;3.85;1.40;;;5.90;87.30;;;;;;5017164;28;20018;-68
2023/06/03 03:58:43;;;;;;;6.70;1.35;;;5.90;87.10;;;;;;5036748;28;20145;-68
2023/06/03 04:01:18;;;;;;;2.95;1.40;;;6.00;87.20;;;;;;5032587;28;20017;-68
2023/06/03 04:03:48;;;;;;;3.17;1.35;;;6.00;87.40;;;;;;5043215;28;20021;-68
2023/06/03 04:06:26;;;;;;;2.92;1.20;;;6.00;87.50;;;;;;5036677;28;20128;-67
2023/06/03 04:08:54;;;;;;;3.55;1.27;;;6.00;87.60;;;;;;5010436;28;20034;-69
2023/06/03 04:11:20;;;;;;;2.17;1.00;;;6.10;87.40;;;;;;5036503;28;20024;-69
2023/06/03 04:13:46;;;;;;;3.42;1.40;;;6.20;87.60;;;;;;5044512;28;20032;-68
2023/06/03 04:16:31;;;;;;;3.10;1.35;;;6.10;87.80;;;;;;5031974;28;21479;-68
2023/06/03 04:18:57;;;;;;;2.42;1.27;;;6.30;88.00;;;;;;5025808;28;20033;-68
2023/06/03 04:21:22;;;;;;;1.77;1.20;;;6.30;87.80;;;;;;5037147;28;20150;-67
2023/06/03 04:23:48;;;;;;;5.00;1.60;;;6.30;87.60;;;;;;5044358;28;20086;-68
2023/06/03 04:26:17;;;;;;;3.55;1.63;;;6.40;87.70;;;;;;5036995;28;20111;-68
2023/06/03 04:28:42;;;;;;;4.38;1.60;;;6.50;87.50;;;;;;5043352;28;20108;-67
2023/06/03 04:31:08;;;;;;;3.08;1.20;;;6.50;87.50;;;;;;5042736;28;20131;-68
2023/06/03 04:33:33;;;;;;;3.13;1.30;;;6.60;87.50;;;;;;5040905;28;20382;-67
2023/06/03 04:35:59;;;;;;;3.28;1.45;;;6.70;86.90;;;;;;5045474;28;20033;-67
2023/06/03 04:38:25;;;;;;;3.65;1.45;;;6.90;87.30;;;;;;5039752;28;20133;-67
2023/06/03 04:40:50;;;;;;;3.80;1.17;;;7.00;87.00;;;;;;5041434;28;20100;-67
2023/06/03 04:43:18;;;;;;;6.40;1.38;;;7.10;86.50;;;;;;5047234;28;20147;-68
2023/06/03 04:45:45;;;;;;;3.88;1.33;;;7.30;86.00;;;;;;5047008;28;20469;-68
2023/06/03 04:48:12;;;;;;;3.00;1.40;;;7.40;85.90;;;;;;5023178;28;20353;-67
2023/06/03 04:50:37;;;;;;;2.47;1.30;;;7.40;85.30;;;;;;5039625;28;20021;-67
2023/06/03 04:53:04;;;;;;;2.42;1.20;;;7.60;85.00;;;;;;5047491;28;20480;-67
2023/06/03 04:55:31;;;;;;;1.85;1.30;;;7.70;84.40;;;;;;5045099;28;20059;-68
2023/06/03 04:57:56;;;;;;;3.63;1.20;;;7.80;83.70;;;;;;5050738;28;20049;-67
2023/06/03 05:00:22;;;;;;;1.70;0.98;;;8.00;83.20;;;;;;5045073;28;20155;-68
2023/06/03 05:02:59;;;;;;;2.13;1.13;;;8.10;82.20;;;;;;5043836;28;20079;-68
2023/06/03 05:05:26;;;;;;;2.65;1.20;;;8.40;80.60;;;;;;5046244;28;20025;-69
2023/06/03 05:07:52;;;;;;;1.98;1.10;;;8.50;80.30;;;;;;5046592;28;20090;-68
2023/06/03 05:10:18;;;;;;;2.55;1.20;;;8.80;78.80;;;;;;5029477;28;20398;-69
2023/06/03 05:12:45;;;;;;;2.30;1.00;;;8.90;79.50;;;;;;5042294;28;20526;-70
2023/06/03 05:15:11;;;;;;;2.15;1.02;;;8.90;80.10;;;;;;5045887;28;20457;-69
2023/06/03 05:17:39;;;;;;;2.17;1.10;;;9.00;80.20;;;;;;5045713;28;20325;-68
2023/06/03 05:20:08;;;;;;;3.20;0.90;;;9.10;79.30;;;;;;5044027;28;20195;-68
2023/06/03 05:22:33;;;;;;;3.35;0.85;;;9.20;79.50;;;;;;5029490;28;20108;-68
2023/06/03 05:24:59;;;;;;;2.85;0.75;;;9.40;77.90;;;;;;5041874;28;20455;-68
2023/06/03 05:27:24;;;;;;;1.33;0.93;;;9.70;75.80;;;;;;5045698;28;20108;-69
2023/06/03 05:29:50;;;;;;;2.95;0.90;;;9.80;76.90;;;;;;5020285;28;20033;-68
2023/06/03 05:32:15;;;;;;;2.95;1.05;;;10.00;74.40;;;;;;5038954;28;20033;-69
2023/06/03 05:34:41;;;;;;;2.60;0.77;;;10.10;74.60;;;;;;5023884;28;20490;-69
2023/06/03 05:37:06;;;;;;;1.92;0.90;;;10.10;76.40;;;;;;5024489;28;20032;-69
2023/06/03 05:39:32;;;;;;;2.30;0.90;;;10.20;75.80;;;;;;5041004;28;20069;-70
2023/06/03 05:41:57;;;;;;;3.03;0.75;;;10.30;75.20;;;;;;5026386;28;20421;-69
2023/06/03 05:44:23;;;;;;;3.85;0.95;;;10.60;73.30;;;;;;5028342;28;20033;-69
2023/06/03 05:46:48;;;;;;;3.15;1.10;;;10.70;72.70;;;;;;5034482;28;20104;-69
2023/06/03 05:49:14;;;;;;;4.50;0.90;;;10.90;71.70;;;;;;5042562;28;20044;-69
2023/06/03 05:51:39;;;;;;;1.70;1.10;;;10.90;72.50;;;;;;5043552;28;20426;-68
2023/06/03 05:54:05;;;;;;;2.58;0.90;;;11.10;71.90;;;;;;5028722;28;20020;-68
2023/06/03 05:56:30;;;;;;;2.05;0.80;;;11.40;69.70;;;;;;5051739;28;20021;-69
2023/06/03 05:58:58;;;;;;;1.98;1.10;;;11.60;67.70;;;;;;5047958;28;20053;-69
2023/06/03 06:01:23;;;;;;;1.98;0.85;;;11.80;67.10;;;;;;5036216;28;20029;-68
2023/06/03 06:03:49;;;;;;;1.55;0.70;;;11.90;66.90;;;;;;5026466;28;20040;-69
2023/06/03 06:06:15;;;;;;;1.85;0.70;;;12.10;61.50;;;;;;5041269;28;20054;-70
2023/06/03 06:08:41;;;;;;;3.78;1.08;;;12.30;64.10;;;;;;5053274;28;20044;-69
2023/06/03 06:11:07;;;;;;;1.17;0.70;;;12.30;64.90;;;;;;5041135;28;20032;-69
2023/06/03 06:13:32;;;;;;;1.70;0.95;;;12.50;63.00;;;;;;5041913;28;20029;-69
2023/06/03 06:16:00;;;;;;;3.42;1.00;;;12.50;65.00;;;;;;5023310;28;20029;-69
2023/06/03 06:18:26;;;;;;;2.15;0.50;;;12.60;66.50;;;;;;5047101;28;20021;-69
2023/06/03 06:20:52;;;;;;;3.35;0.80;;;12.60;64.00;;;;;;5034573;28;20032;-70
2023/06/03 06:23:17;;;;;;;2.38;0.98;;;12.80;63.60;;;;;;5060123;28;20437;-70
2023/06/03 06:25:50;;;;;;;2.40;0.90;;;13.10;60.80;;;;;;5041913;28;20102;-69
2023/06/03 06:28:29;;;;;;;2.47;0.70;;;13.30;63.50;;;;;;5044076;28;20045;-69
2023/06/03 06:30:59;;;;;;;1.15;0.60;;;13.60;60.10;;;;;;5042128;28;20025;-69
2023/06/03 06:33:27;;;;;;;1.88;1.08;;;13.60;57.10;;;;;;5038520;28;20025;-69
2023/06/03 06:35:52;;;;;;;5.05;0.90;;;13.70;57.80;;;;;;5044920;28;20052;-69
2023/06/03 06:38:18;;;;;;;2.55;1.00;;;14.00;59.60;;;;;;5024090;28;20071;-70
2023/06/03 06:40:45;;;;;;;0.82;0.70;;;14.10;58.70;;;;;;5044225;28;20124;-70
2023/06/03 06:43:16;;;;;;;3.28;1.00;;;14.40;57.60;;;;;;5038591;28;20114;-69
2023/06/03 06:45:41;;;;;;;2.15;0.80;;;14.30;54.90;;;;;;5042882;28;20032;-71
2023/06/03 06:48:09;;;;;;;1.23;0.80;;;14.40;53.70;;;;;;5033397;28;20041;-69
2023/06/03 06:50:55;;;;;;;0.85;0.60;;;14.60;56.80;;;;;;5039376;28;20021;-69
2023/06/03 06:53:24;;;;;;;2.50;0.80;;;14.70;52.70;;;;;;5035286;28;20021;-70
2023/06/03 06:56:08;;;;;;;4.70;0.98;;;15.00;54.40;;;;;;5036972;28;20029;-69
2023/06/03 06:58:36;;;;;;;4.20;0.80;;;15.10;56.40;;;;;;5024286;28;20037;-71
2023/06/03 07:01:05;;;;;;;1.05;0.70;;;15.30;52.40;;;;;;5042117;28;20021;-70
2023/06/03 07:03:31;;;;;;;3.58;0.80;;;15.30;51.80;;;;;;5038899;28;20382;-70
2023/06/03 07:05:56;;;;;;;3.63;0.70;;;15.60;53.60;;;;;;5039372;28;20024;-70
2023/06/03 07:08:22;;;;;;;2.17;0.95;;;15.60;52.60;;;;;;5047447;28;20033;-70
2023/06/03 07:10:48;;;;;;;1.73;0.70;;;15.70;50.50;;;;;;5033719;28;20370;-70
2023/06/03 07:13:17;;;;;;;2.20;0.90;;;15.90;52.10;;;;;;5040444;28;20126;-68
2023/06/03 07:15:43;;;;;;;1.83;0.60;;;16.10;51.70;;;;;;5040356;28;20276;-68
2023/06/03 07:18:12;;;;;;;1.25;0.82;;;16.30;48.30;;;;;;5038313;28;20029;-67
2023/06/03 07:20:43;;;;;;;8.75;0.93;;;16.10;48.00;;;;;;5038276;28;20037;-68
2023/06/03 07:23:13;;;;;;;1.48;0.60;;;16.70;49.90;;;;;;5029951;28;20025;-68
2023/06/03 07:25:47;;;;;;;1.77;0.80;;;16.80;50.10;;;;;;5038921;28;20052;-68
2023/06/03 07:28:14;;;;;;;1.95;0.90;;;16.60;48.40;;;;;;5039455;28;20044;-68
2023/06/03 07:30:42;;;;;;;2.17;0.80;;;17.00;51.50;;;;;;5045807;28;20184;-68
2023/06/03 07:33:23;;;;;;;1.63;0.68;;;16.80;46.80;;;;;;5040857;28;20382;-68
2023/06/03 07:35:56;;;;;;;1.55;0.70;;;16.70;47.50;;;;;;5034989;28;20430;-68
2023/06/03 07:38:51;;;;;;;1.20;0.60;;;16.90;46.50;;;;;;5038305;28;20448;-69
2023/06/03 07:41:33;;;;;;;1.85;0.63;;;17.50;47.30;;;;;;5041054;28;20090;-69
2023/06/03 07:43:58;;;;;;;1.80;0.70;;;17.20;46.10;;;;;;5024175;28;20021;-68
2023/06/03 07:46:39;;;;;;;2.30;0.82;;;17.60;45.30;;;;;;5040577;28;20045;-69
2023/06/03 07:49:08;;;;;;;4.00;0.82;;;17.90;49.60;;;;;;5044187;28;20033;-68
2023/06/03 07:51:34;;;;;;;0.65;0.47;;;18.00;47.60;;;;;;5039987;28;20025;-68
2023/06/03 07:53:59;;;;;;;1.02;0.60;;;18.30;43.90;;;;;;5050794;28;20024;-68
2023/06/03 07:56:27;;;;;;;2.15;0.63;;;18.50;44.60;;;;;;5046146;28;20044;-68
2023/06/03 07:58:52;;;;;;;2.40;0.55;;;17.90;42.40;;;;;;5044109;28;20458;-68
2023/06/03 08:01:18;;;;;;;2.65;0.70;;;18.20;47.90;;;;;;5042732;28;20040;-68
2023/06/03 08:03:43;;;;;;;0.80;0.43;;;18.80;47.60;;;;;;5046222;28;20081;-68
2023/06/03 08:06:09;;;;;;;4.00;0.70;;;18.90;47.90;;;;;;5047975;28;20108;-68
2023/06/03 08:08:34;;;;;;;1.17;0.60;;;18.70;46.60;;;;;;5032680;28;20374;-68
2023/06/03 08:11:03;;;;;;;0.68;0.50;;;19.00;43.10;;;;;;5041848;28;20029;-68
2023/06/03 08:13:29;;;;;;;1.40;0.57;;;19.30;45.00;;;;;;5032893;28;20403;-68
2023/06/03 08:15:55;;;;;;;3.05;0.65;;;19.20;41.90;;;;;;5038246;28;20080;-68
2023/06/03 08:18:35;;;;;;;2.50;0.60;;;19.40;40.70;;;;;;5030902;28;20040;-69
2023/06/03 08:21:02;;;;;;;1.67;0.80;;;19.00;40.20;;;;;;5037697;28;20127;-68
2023/06/03 08:23:27;;;;;;;3.75;0.50;;;19.20;44.90;;;;;;5035071;28;20433;-68
2023/06/03 08:25:53;;;;;;;1.38;0.60;;;19.70;44.80;;;;;;5037065;28;20056;-68
2023/06/03 08:28:18;;;;;;;1.50;0.57;;;19.70;42.90;;;;;;5046585;28;20111;-68
2023/06/03 08:30:44;;;;;;;1.98;0.70;;;19.90;42.00;;;;;;5050340;28;20025;-70
2023/06/03 08:33:12;;;;;;;3.55;0.82;;;19.70;41.60;;;;;;5047051;28;20024;-69
2023/06/03 08:35:37;;;;;;;2.67;0.60;;;19.70;43.70;;;;;;5048987;28;20033;-70
2023/06/03 08:38:03;;;;;;;3.10;0.70;;;20.10;43.60;;;;;;5038901;28;20090;-68
2023/06/03 08:40:31;;;;;;;3.35;0.68;;;20.00;40.70;;;;;;5047374;28;20033;-68
2023/06/03 08:43:02;;;;;;;2.75;0.65;;;20.10;42.40;;;;;;5050147;28;20425;-68
2023/06/03 08:45:45;;;;;;;3.95;0.98;;;20.10;41.50;;;;;;5045222;28;20029;-68
2023/06/03 08:48:47;;;;;;;3.05;0.70;;;19.80;42.10;;;;;;5037798;28;20041;-68
2023/06/03 08:51:15;;;;;;;8.40;0.82;;;20.80;44.20;;;;;;5030976;28;20134;-68
2023/06/03 08:53:48;;;;;;;1.52;0.60;;;20.50;41.50;;;;;;5037778;28;20025;-68
2023/06/03 08:56:17;;;;;;;1.35;0.50;;;20.60;39.80;;;;;;5043197;28;20427;-68
2023/06/03 08:58:46;;;;;;;1.90;0.70;;;20.70;42.30;;;;;;5039299;28;20041;-71
2023/06/03 09:01:13;;;;;;;6.60;0.90;;;20.50;41.30;;;;;;5041791;28;20111;-69
2023/06/03 09:03:42;;;;;;;3.70;0.57;;;21.00;40.10;;;;;;5045518;28;20024;-68
2023/06/03 09:06:08;;;;;;;1.10;0.68;;;21.00;42.70;;;;;;5044135;28;20436;-68
2023/06/03 09:08:35;;;;;;;0.85;0.40;;;20.80;36.50;;;;;;5038479;28;20433;-68
2023/06/03 09:11:02;;;;;;;1.58;0.50;;;20.50;36.50;;;;;;5042543;28;20155;-70
2023/06/03 09:13:31;;;;;;;2.67;0.50;;;20.80;36.50;;;;;;5050554;28;20037;-68
2023/06/03 09:15:57;;;;;;;2.90;0.98;;;20.90;39.20;;;;;;5036785;28;20040;-69
2023/06/03 09:18:23;;;;;;;2.22;0.50;;;20.80;37.20;;;;;;5040645;28;20469;-68
2023/06/03 09:20:48;;;;;;;1.10;0.60;;;20.40;38.00;;;;;;5047542;28;20044;-68
2023/06/03 09:23:15;;;;;;;3.05;0.70;;;20.80;39.20;;;;;;5047748;28;20032;-70
2023/06/03 09:25:43;;;;;;;1.38;0.65;;;20.90;39.40;;;;;;5047163;28;20099;-69
2023/06/03 09:28:08;;;;;;;4.18;1.27;;;21.40;38.20;;;;;;5046821;28;20033;-69
2023/06/03 09:30:35;;;;;;;11.80;3.40;;;21.50;38.40;;;;;;5045716;28;20098;-69
2023/06/03 09:33:02;;;;;;;2.38;0.88;;;21.40;37.10;;;;;;5041652;28;20061;-70
2023/06/03 09:35:27;;;;;;;1.55;0.50;;;21.50;38.40;;;;;;5053308;28;20021;-70
2023/06/03 09:38:00;;;;;;;2.92;0.70;;;21.10;33.40;;;;;;5053261;28;20063;-69
2023/06/03 09:40:28;;;;;;;1.73;0.57;;;21.50;37.20;;;;;;5044150;28;20115;-70
2023/06/03 09:42:53;;;;;;;5.40;0.80;;;21.00;33.40;;;;;;5043568;28;20063;-69
2023/06/03 09:45:29;;;;;;;2.30;0.75;;;21.00;37.90;;;;;;5046897;28;20511;-69
2023/06/03 09:47:56;;;;;;;1.15;0.50;;;21.30;36.50;;;;;;5023043;28;20460;-70
2023/06/03 09:50:22;;;;;;;3.30;0.50;;;22.00;37.50;;;;;;5047833;28;20033;-69
2023/06/03 09:52:47;;;;;;;1.50;0.50;;;22.20;36.40;;;;;;5045789;28;20442;-69
2023/06/03 09:55:14;;;;;;;3.15;0.50;;;21.90;35.20;;;;;;5046415;28;20116;-70
2023/06/03 09:57:41;;;;;;;2.60;0.75;;;22.10;35.40;;;;;;5041920;28;20057;-69
2023/06/03 10:00:11;;;;;;;2.15;0.43;;;22.30;36.70;;;;;;5043418;28;20025;-70
2023/06/03 10:02:38;;;;;;;1.15;0.45;;;22.10;33.90;;;;;;5031834;28;20120;-69
2023/06/03 10:05:24;;;;;;;0.70;0.50;;;22.00;37.60;;;;;;5048167;28;20143;-71
2023/06/03 10:07:49;;;;;;;1.75;0.60;;;22.20;34.10;;;;;;5040917;28;20036;-71
2023/06/03 10:10:14;;;;;;;0.45;0.30;;;22.10;31.90;;;;;;5045131;28;20033;-71
2023/06/03 10:12:40;;;;;;;1.40;0.50;;;22.00;31.70;;;;;;5046273;28;20107;-70
2023/06/03 10:15:06;;;;;;;1.48;0.60;;;22.00;33.60;;;;;;5041998;28;20503;-73
2023/06/03 10:17:32;;;;;;;0.93;0.50;;;22.10;34.10;;;;;;5040848;28;20308;-70
2023/06/03 10:19:57;;;;;;;2.22;0.65;;;22.10;33.80;;;;;;5047959;28;20195;-71
2023/06/03 10:22:26;;;;;;;4.53;0.70;;;22.30;34.50;;;;;;5046319;28;20028;-70
2023/06/03 10:24:54;;;;;;;3.13;0.60;;;22.50;34.50;;;;;;5043770;28;20036;-72
2023/06/03 10:27:20;;;;;;;1.65;0.55;;;22.50;33.80;;;;;;5058524;28;20069;-71
2023/06/03 10:29:50;;;;;;;0.75;0.50;;;22.50;35.90;;;;;;5042006;28;20098;-70
2023/06/03 10:32:16;;;;;;;1.63;0.70;;;22.50;34.10;;;;;;5039595;28;20414;-70
2023/06/03 10:34:43;;;;;;;2.15;0.68;;;22.90;35.80;;;;;;5030143;28;20095;-70
2023/06/03 10:37:12;;;;;;;2.63;0.55;;;23.10;36.20;;;;;;5038767;28;20025;-70
2023/06/03 10:39:39;;;;;;;2.53;0.70;;;23.40;34.40;;;;;;5033801;28;20031;-69
2023/06/03 10:42:06;;;;;;;1.08;0.55;;;23.80;33.80;;;;;;5045130;28;20086;-69
2023/06/03 10:44:32;;;;;;;2.78;0.40;;;23.10;36.10;;;;;;5024042;28;20053;-67
2023/06/03 10:47:24;;;;;;;1.70;0.50;;;23.20;32.80;;;;;;5039587;28;20120;-66
2023/06/03 10:49:58;;;;;;;1.48;0.60;;;23.40;32.80;;;;;;5045003;28;20368;-71
2023/06/03 10:52:45;;;;;;;2.08;0.50;;;23.40;34.50;;;;;;5045660;28;20172;-69
2023/06/03 10:55:20;;;;;;;2.72;0.60;;;23.00;33.40;;;;;;5057600;28;22058;-69
2023/06/03 10:57:48;;;;;;;1.40;0.50;;;22.80;32.70;;;;;;5040106;28;20053;-69
2023/06/03 11:00:53;;;;;;;0.40;0.40;;;22.90;33.20;;;;;;5036582;28;20110;-69
2023/06/03 11:03:21;;;;;;;0.82;0.50;;;22.90;32.70;;;;;;5043018;28;20040;-68
2023/06/03 11:05:50;;;;;;;0.82;0.40;;;23.50;35.40;;;;;;5045004;28;20021;-70
2023/06/03 11:08:53;;;;;;;2.45;0.70;;;23.20;31.80;;;;;;5039221;28;20165;-70
2023/06/03 11:11:38;;;;;;;3.22;0.95;;;23.20;32.50;;;;;;5032433;28;20033;-69
2023/06/03 11:14:03;;;;;;;3.33;0.70;;;23.50;31.30;;;;;;5037468;28;20094;-69
2023/06/03 11:16:29;;;;;;;3.50;0.60;;;23.50;30.50;;;;;;5034354;28;20136;-70
2023/06/03 11:19:33;;;;;;;1.52;0.50;;;23.80;32.30;;;;;;5037162;28;20087;-69
2023/06/03 11:21:59;;;;;;;0.63;0.40;;;24.50;31.70;;;;;;5036843;28;20029;-68
2023/06/03 11:24:37;;;;;;;1.98;0.50;;;24.20;30.70;;;;;;5043010;28;20036;-69
2023/06/03 11:27:23;;;;;;;3.50;0.50;;;24.30;31.20;;;;;;5019587;28;20041;-69
2023/06/03 11:29:50;;;;;;;2.40;0.50;;;24.20;31.20;;;;;;5046385;28;20037;-70
2023/06/03 11:32:19;;;;;;;1.83;0.75;;;24.50;32.50;;;;;;5041133;28;20192;-68
2023/06/03 11:34:47;;;;;;;1.27;0.70;;;24.30;29.60;;;;;;5043540;28;20128;-68
2023/06/03 11:37:15;;;;;;;2.00;0.50;;;24.00;30.50;;;;;;5039445;28;20045;-68
2023/06/03 11:40:12;;;;;;;1.17;0.45;;;24.40;31.40;;;;;;5042921;28;20040;-69
2023/06/03 11:42:46;;;;;;;2.70;0.40;;;24.90;34.80;;;;;;5039589;28;20017;-69
2023/06/03 11:45:32;;;;;;;4.55;0.70;;;24.90;33.60;;;;;;5037322;28;20458;-69
2023/06/03 11:48:21;;;;;;;1.58;0.60;;;25.50;32.00;;;;;;5043015;28;20025;-68
2023/06/03 11:50:54;;;;;;;3.75;0.60;;;25.50;29.20;;;;;;5038107;28;20374;-69
2023/06/03 11:53:33;;;;;;;2.45;0.70;;;25.60;28.40;;;;;;5041344;28;20028;-69
2023/06/03 11:56:06;;;;;;;2.50;0.50;;;25.60;28.80;;;;;;5039726;28;20105;-69
2023/06/03 11:58:32;;;;;;;1.17;0.60;;;25.70;29.60;;;;;;5041107;28;20056;-69
2023/06/03 12:01:05;;;;;;;1.33;0.50;;;26.00;30.70;;;;;;5042671;28;20068;-71
2023/06/03 12:03:31;;;;;;;1.05;0.50;;;25.90;29.30;;;;;;5035999;28;20134;-68
2023/06/03 12:05:57;;;;;;;1.17;0.32;;;25.80;28.30;;;;;;5046091;28;20147;-69
2023/06/03 12:08:22;;;;;;;1.27;0.55;;;26.50;29.70;;;;;;5041868;28;20119;-69
2023/06/03 12:10:48;;;;;;;3.05;0.80;;;26.80;28.20;;;;;;5023258;28;20099;-69
2023/06/03 12:13:14;;;;;;;0.98;0.50;;;26.30;29.40;;;;;;5040278;28;20099;-68
2023/06/03 12:15:49;;;;;;;2.75;1.08;;;27.20;31.00;;;;;;5043274;28;20461;-69
2023/06/03 12:18:14;;;;;;;3.50;0.80;;;26.80;28.70;;;;;;5047918;28;20033;-68
2023/06/03 12:20:40;;;;;;;1.58;0.63;;;26.50;27.80;;;;;;5048964;28;20110;-69
2023/06/03 12:23:06;;;;;;;1.48;0.63;;;26.40;29.60;;;;;;5046649;28;20364;-69
2023/06/03 12:25:36;;;;;;;2.00;0.85;;;26.50;28.20;;;;;;5046406;28;20194;-73
2023/06/03 12:28:24;;;;;;;0.70;0.47;;;26.70;28.30;;;;;;5044657;28;20025;-65
2023/06/03 12:30:50;;;;;;;3.40;0.60;;;26.60;27.20;;;;;;5026598;28;20129;-66
2023/06/03 12:33:16;;;;;;;1.30;0.50;;;27.30;29.60;;;;;;5048920;28;20463;-67
2023/06/03 12:35:52;;;;;;;0.80;0.45;;;26.90;25.50;;;;;;5049083;28;21120;-71
2023/06/03 12:38:18;;;;;;;1.83;0.55;;;27.20;25.10;;;;;;5042193;28;20029;-68
2023/06/03 12:40:45;;;;;;;1.15;0.52;;;27.60;27.60;;;;;;5045373;28;20024;-71
2023/06/03 12:43:21;;;;;;;0.75;0.57;;;27.50;27.00;;;;;;5041528;28;20052;-67
2023/06/03 12:45:47;;;;;;;0.90;0.50;;;27.50;26.80;;;;;;5048576;28;20100;-72
2023/06/03 12:48:30;;;;;;;0.95;0.40;;;27.80;26.40;;;;;;5041696;28;20028;-67
2023/06/03 12:50:56;;;;;;;1.48;0.50;;;27.90;26.00;;;;;;5041050;28;20033;-69
2023/06/03 12:53:21;;;;;;;0.77;0.50;;;27.60;26.80;;;;;;5043054;28;20032;-68
2023/06/03 12:55:47;;;;;;;0.70;0.45;;;27.50;25.80;;;;;;5043440;28;20064;-69
2023/06/03 12:58:13;;;;;;;1.48;0.70;;;27.30;25.50;;;;;;5045932;28;20391;-68